Time;durP1;ratioP1;P1;durP2;ratioP2;P2;SDS_P1;SDS_P2;PMS_P1;PMS_P2;Temp;Humidity;BMP_temperature;BMP_pressure;BME280_temperature;BME280_humidity;BME280_pressure;Samples;Min_cycle;Max_cycle;Signal;HPM_P1;HPM_P2
2023/07/04 09:41:59;;;;;;;3.72;1.10;;;17.70;99.90;;;;;;5044825;28;20621;-81
2023/07/04 09:44:36;;;;;;;6.22;1.05;;;17.70;99.90;;;;;;5067625;28;20087;-83
2023/07/04 09:47:02;;;;;;;9.43;2.22;;;17.80;99.90;;;;;;5064919;28;20048;-83
2023/07/04 09:49:35;;;;;;;10.18;1.75;;;17.80;99.90;;;;;;5033815;28;20072;-83
2023/07/04 09:52:09;;;;;;;5.55;1.30;;;17.80;99.90;;;;;;5065287;28;20137;-84
2023/07/04 09:54:40;;;;;;;6.93;0.90;;;17.90;99.90;;;;;;5067780;28;20049;-84
2023/07/04 09:57:32;;;;;;;5.03;0.88;;;18.10;99.90;;;;;;5068483;28;20055;-85
2023/07/04 10:00:23;;;;;;;7.87;0.90;;;18.20;99.90;;;;;;5063808;28;20143;-85
2023/07/04 10:02:52;;;;;;;4.75;0.80;;;18.20;99.90;;;;;;5066800;28;20091;-84
2023/07/04 10:05:31;;;;;;;7.35;1.80;;;18.10;99.90;;;;;;5066852;28;20049;-84
2023/07/04 10:08:05;;;;;;;2.28;0.60;;;18.20;99.90;;;;;;5066415;28;20158;-82
2023/07/04 10:10:37;;;;;;;5.30;1.00;;;18.30;99.90;;;;;;5065985;28;20557;-84
2023/07/04 10:13:06;;;;;;;5.30;1.05;;;18.50;99.90;;;;;;5047563;28;20080;-85
2023/07/04 10:15:38;;;;;;;3.85;0.85;;;18.80;99.90;;;;;;5069093;28;20516;-85
2023/07/04 10:18:04;;;;;;;5.07;0.82;;;18.90;99.90;;;;;;5069964;28;20083;-82
2023/07/04 10:20:39;;;;;;;6.68;1.17;;;18.90;99.90;;;;;;5063878;28;20191;-82
2023/07/04 10:23:06;;;;;;;4.13;0.88;;;19.10;99.90;;;;;;5080265;28;20049;-84
2023/07/04 10:25:34;;;;;;;3.90;1.10;;;19.30;99.90;;;;;;5071097;28;20043;-81
2023/07/04 10:28:13;;;;;;;4.50;0.63;;;19.40;99.90;;;;;;5070069;28;20040;-84
2023/07/04 10:30:42;;;;;;;3.72;0.82;;;19.40;99.90;;;;;;5065204;28;20051;-83
2023/07/04 10:33:24;;;;;;;4.40;0.75;;;19.70;99.90;;;;;;5067529;28;20527;-82
2023/07/04 10:35:51;;;;;;;6.85;1.02;;;20.10;99.90;;;;;;5048709;28;20084;-82
2023/07/04 10:38:41;;;;;;;4.18;0.80;;;20.40;99.90;;;;;;5063660;28;20051;-84
2023/07/04 10:41:22;;;;;;;2.25;0.75;;;20.60;99.50;;;;;;5067448;28;20445;-84
2023/07/04 10:43:55;;;;;;;3.38;0.68;;;20.60;99.10;;;;;;5064108;28;20053;-84
2023/07/04 10:46:25;;;;;;;7.07;0.93;;;20.60;99.30;;;;;;5064788;28;20131;-83
2023/07/04 10:49:01;;;;;;;5.03;0.80;;;20.40;98.90;;;;;;5048879;28;20040;-82
2023/07/04 10:51:40;;;;;;;3.10;0.60;;;20.30;99.20;;;;;;5063142;28;20040;-83
2023/07/04 10:54:11;;;;;;;4.13;0.80;;;20.50;97.90;;;;;;5065771;28;20083;-82
2023/07/04 10:56:40;;;;;;;4.75;0.63;;;20.50;98.20;;;;;;5064190;28;20040;-83
2023/07/04 10:59:32;;;;;;;3.65;0.93;;;20.80;98.00;;;;;;5065002;28;20044;-84
2023/07/04 11:02:11;;;;;;;5.38;0.60;;;21.00;96.10;;;;;;5067443;28;20040;-84
2023/07/04 11:04:39;;;;;;;3.00;0.80;;;21.10;96.20;;;;;;5063627;28;20046;-84
2023/07/04 11:07:12;;;;;;;5.15;0.73;;;20.20;96.70;;;;;;5067075;28;20048;-83
2023/07/04 11:09:40;;;;;;;3.78;0.88;;;20.90;97.10;;;;;;5066445;28;20047;-83
2023/07/04 11:12:12;;;;;;;3.40;0.95;;;21.00;96.60;;;;;;5048123;28;20040;-83
2023/07/04 11:14:41;;;;;;;4.43;1.15;;;21.10;96.50;;;;;;5065060;28;20044;-84
2023/07/04 11:17:12;;;;;;;2.92;0.80;;;21.10;96.00;;;;;;5062990;28;20050;-84
2023/07/04 11:20:10;;;;;;;7.13;2.22;;;21.20;95.50;;;;;;5068363;28;20053;-83
2023/07/04 11:22:46;;;;;;;3.15;0.70;;;22.90;95.90;;;;;;5066301;28;20488;-84
2023/07/04 11:25:32;;;;;;;4.10;0.88;;;21.60;95.70;;;;;;5064782;28;20048;-84
2023/07/04 11:28:35;;;;;;;2.33;0.90;;;21.80;94.10;;;;;;5066095;28;20044;-80
2023/07/04 11:31:22;;;;;;;4.03;0.95;;;22.10;92.20;;;;;;5064629;28;20045;-83
2023/07/04 11:33:53;;;;;;;2.90;0.80;;;22.30;92.70;;;;;;5065895;28;20541;-83
2023/07/04 11:36:38;;;;;;;3.40;0.80;;;22.30;92.90;;;;;;5066510;28;20578;-84
2023/07/04 11:39:36;;;;;;;2.80;0.47;;;22.50;93.00;;;;;;5063164;28;20064;-82
2023/07/04 11:42:14;;;;;;;5.78;0.80;;;22.40;90.40;;;;;;5050571;28;20045;-82
2023/07/04 11:45:02;;;;;;;4.70;0.70;;;22.40;90.70;;;;;;5011962;28;20112;-82
2023/07/04 11:47:34;;;;;;;3.72;0.90;;;22.50;90.60;;;;;;5010859;28;20041;-82
2023/07/04 11:50:06;;;;;;;3.22;0.70;;;22.40;91.40;;;;;;5028748;28;20053;-82
2023/07/04 11:52:33;;;;;;;6.17;0.87;;;22.30;91.10;;;;;;5029628;28;20038;-81
2023/07/04 11:55:05;;;;;;;3.38;1.08;;;22.30;91.30;;;;;;5028977;28;20485;-83
2023/07/04 11:57:55;;;;;;;5.68;0.98;;;22.20;91.50;;;;;;5033678;28;20030;-79
2023/07/04 12:00:37;;;;;;;2.45;0.70;;;22.10;89.90;;;;;;5022392;28;20129;-81
2023/07/04 12:03:18;;;;;;;4.73;0.83;;;21.90;91.20;;;;;;5017709;28;20370;-83
2023/07/04 12:05:49;;;;;;;5.78;0.95;;;21.90;91.40;;;;;;5012947;28;20477;-82
2023/07/04 12:08:23;;;;;;;4.13;0.98;;;21.90;91.80;;;;;;5027029;28;20057;-82
2023/07/04 12:10:50;;;;;;;4.28;0.85;;;22.10;91.10;;;;;;5028986;28;20092;-82
2023/07/04 12:13:20;;;;;;;4.57;0.90;;;22.10;91.10;;;;;;5010428;28;20061;-82
2023/07/04 12:15:51;;;;;;;5.95;0.93;;;21.90;90.30;;;;;;5011571;28;20503;-81
2023/07/04 12:18:24;;;;;;;4.00;0.90;;;21.70;90.10;;;;;;5011267;28;20048;-82
2023/07/04 12:20:50;;;;;;;4.82;0.75;;;21.70;90.60;;;;;;5026458;28;20061;-82
2023/07/04 12:23:16;;;;;;;6.65;1.85;;;21.80;90.70;;;;;;5028547;28;20736;-83
2023/07/04 12:26:01;;;;;;;10.57;1.35;;;21.80;90.20;;;;;;5027155;28;20080;-82
2023/07/04 12:28:29;;;;;;;5.93;1.02;;;21.80;90.10;;;;;;5012268;28;20072;-82
2023/07/04 12:31:01;;;;;;;5.63;0.73;;;21.90;90.30;;;;;;5011123;28;20064;-81
2023/07/04 12:33:31;;;;;;;4.07;0.80;;;22.10;89.00;;;;;;5027899;28;20050;-81
2023/07/04 12:36:06;;;;;;;6.28;0.82;;;22.00;88.30;;;;;;5030020;28;20049;-83
2023/07/04 12:38:33;;;;;;;4.47;0.63;;;21.90;88.10;;;;;;5027535;28;20056;-83
2023/07/04 12:41:00;;;;;;;3.20;0.85;;;22.00;87.70;;;;;;5029740;28;20076;-82
2023/07/04 12:43:31;;;;;;;3.72;0.70;;;22.20;87.90;;;;;;5048826;28;20543;-82
2023/07/04 12:46:28;;;;;;;6.50;1.23;;;22.40;86.00;;;;;;5066955;28;20523;-83
2023/07/04 12:48:55;;;;;;;3.80;0.73;;;22.50;84.60;;;;;;5053018;28;20063;-82
2023/07/04 12:51:25;;;;;;;4.78;0.95;;;22.60;86.00;;;;;;5065094;28;20036;-82
2023/07/04 12:53:52;;;;;;;2.85;0.70;;;22.60;85.40;;;;;;5066879;28;20040;-83
2023/07/04 12:56:18;;;;;;;2.83;0.80;;;22.50;86.80;;;;;;5049359;28;20143;-83
2023/07/04 12:58:46;;;;;;;5.75;0.73;;;22.30;85.80;;;;;;5066516;28;20087;-83
2023/07/04 13:01:18;;;;;;;4.88;1.00;;;22.40;85.90;;;;;;5067078;28;20045;-82
2023/07/04 13:03:45;;;;;;;2.38;0.47;;;22.40;85.50;;;;;;5049050;28;20052;-83
2023/07/04 13:06:19;;;;;;;7.30;1.02;;;22.50;85.30;;;;;;5067280;28;20048;-82
2023/07/04 13:08:48;;;;;;;6.22;1.60;;;22.50;84.20;;;;;;5065924;28;20430;-82
2023/07/04 13:11:14;;;;;;;3.58;0.85;;;22.60;85.00;;;;;;5067318;28;20083;-83
2023/07/04 13:13:47;;;;;;;4.03;0.82;;;22.70;85.40;;;;;;5066763;28;20084;-83
2023/07/04 13:16:29;;;;;;;3.97;0.68;;;22.90;84.10;;;;;;5049084;28;20093;-81
2023/07/04 13:19:15;;;;;;;5.13;0.93;;;23.00;84.50;;;;;;5068026;28;20410;-83
2023/07/04 13:21:47;;;;;;;3.60;0.93;;;23.00;84.20;;;;;;5065471;28;20569;-83
2023/07/04 13:24:32;;;;;;;4.90;0.85;;;22.90;84.00;;;;;;5050035;28;20415;-83
2023/07/04 13:27:15;;;;;;;5.13;1.10;;;22.70;82.80;;;;;;5051349;28;20076;-83
2023/07/04 13:29:56;;;;;;;4.75;1.00;;;22.50;83.80;;;;;;5067175;28;20517;-83
2023/07/04 13:32:36;;;;;;;4.78;0.80;;;22.60;84.70;;;;;;5087835;28;20045;-81
2023/07/04 13:35:36;;;;;;;3.75;0.98;;;22.70;83.70;;;;;;5069644;28;20044;-81
2023/07/04 13:38:04;;;;;;;7.22;0.88;;;22.80;83.20;;;;;;5048028;28;20555;-83
2023/07/04 13:40:30;;;;;;;3.13;0.77;;;23.00;84.50;;;;;;5051216;28;20041;-83
2023/07/04 13:43:10;;;;;;;2.40;0.75;;;23.20;84.00;;;;;;5064825;28;20048;-84
2023/07/04 13:45:37;;;;;;;8.02;1.58;;;23.20;81.70;;;;;;5049322;28;20120;-83
2023/07/04 13:48:03;;;;;;;5.32;0.82;;;23.10;82.80;;;;;;5049713;28;20053;-83
2023/07/04 13:50:30;;;;;;;5.20;1.30;;;22.80;82.30;;;;;;5048055;28;20127;-82
2023/07/04 13:52:56;;;;;;;5.15;1.27;;;22.50;82.30;;;;;;5033630;28;20087;-82
2023/07/04 13:55:22;;;;;;;7.65;1.23;;;22.30;82.70;;;;;;5064775;28;20475;-83
2023/07/04 13:57:48;;;;;;;8.93;1.02;;;22.10;82.70;;;;;;5050172;28;20137;-83
2023/07/04 14:00:14;;;;;;;5.88;1.15;;;22.00;83.50;;;;;;5064955;28;20071;-83
2023/07/04 14:02:40;;;;;;;3.65;1.00;;;22.00;83.30;;;;;;5049517;28;20036;-83
2023/07/04 14:05:06;;;;;;;6.63;1.05;;;22.20;83.70;;;;;;5048434;28;20452;-82
2023/07/04 14:07:32;;;;;;;4.45;0.95;;;22.50;83.30;;;;;;5047588;28;20041;-83
2023/07/04 14:09:59;;;;;;;6.30;1.00;;;22.60;83.30;;;;;;5032360;28;20051;-83
2023/07/04 14:12:24;;;;;;;3.25;0.90;;;22.80;83.50;;;;;;5047256;28;20040;-83
2023/07/04 14:14:50;;;;;;;3.80;0.85;;;23.10;82.90;;;;;;5066578;28;20125;-84
2023/07/04 14:17:16;;;;;;;3.15;0.80;;;23.10;81.50;;;;;;5064505;28;20491;-83
2023/07/04 14:19:41;;;;;;;3.25;0.90;;;23.00;81.10;;;;;;5067031;28;20124;-84
2023/07/04 14:22:07;;;;;;;4.28;0.90;;;24.00;81.60;;;;;;5065431;28;20147;-83
2023/07/04 14:24:33;;;;;;;5.50;1.08;;;22.90;81.20;;;;;;5065691;28;20045;-82
2023/07/04 14:26:58;;;;;;;4.75;0.75;;;23.00;81.50;;;;;;5065385;28;20124;-84
2023/07/04 14:29:24;;;;;;;6.40;1.00;;;23.10;81.30;;;;;;5047050;28;20068;-83
2023/07/04 14:31:50;;;;;;;5.80;0.80;;;23.20;81.50;;;;;;5049350;28;20077;-82
2023/07/04 14:34:15;;;;;;;2.72;0.80;;;23.00;80.90;;;;;;5065299;28;20045;-84
2023/07/04 14:36:41;;;;;;;4.90;1.42;;;22.90;80.80;;;;;;5065601;28;20492;-82
2023/07/04 14:39:07;;;;;;;6.57;0.85;;;22.90;80.80;;;;;;5066015;28;20434;-82
2023/07/04 14:41:33;;;;;;;7.07;1.48;;;22.90;80.60;;;;;;5065293;28;20048;-82
2023/07/04 14:43:58;;;;;;;5.20;1.00;;;22.80;80.50;;;;;;5066712;28;20321;-82
2023/07/04 14:46:24;;;;;;;3.15;0.63;;;22.80;80.20;;;;;;5063678;28;20066;-83
2023/07/04 14:48:50;;;;;;;6.75;1.60;;;23.00;80.60;;;;;;5067172;28;20173;-83
2023/07/04 14:51:15;;;;;;;6.05;1.10;;;23.10;80.50;;;;;;5067777;28;20051;-84
2023/07/04 14:53:42;;;;;;;8.43;1.30;;;21.90;79.50;;;;;;5070441;28;20074;-83
2023/07/04 14:56:12;;;;;;;4.93;0.95;;;23.30;79.90;;;;;;5064794;28;20094;-83
2023/07/04 14:58:38;;;;;;;3.40;0.90;;;23.20;80.20;;;;;;5064111;28;20111;-83
2023/07/04 15:01:05;;;;;;;5.03;1.02;;;23.10;79.50;;;;;;5049086;28;20560;-84
2023/07/04 15:03:33;;;;;;;5.90;0.98;;;23.00;79.50;;;;;;5065830;28;20048;-82
2023/07/04 15:06:00;;;;;;;5.10;1.05;;;23.00;79.50;;;;;;5067966;28;20044;-83
2023/07/04 15:08:25;;;;;;;3.92;0.88;;;22.80;79.40;;;;;;5075230;28;20033;-80
2023/07/04 15:10:51;;;;;;;6.93;1.98;;;22.70;79.90;;;;;;5082161;28;20099;-81
2023/07/04 15:13:17;;;;;;;4.35;1.10;;;22.60;80.10;;;;;;5080180;28;20092;-84
2023/07/04 15:15:43;;;;;;;3.75;0.85;;;22.60;80.00;;;;;;5050820;28;20052;-82
2023/07/04 15:18:08;;;;;;;3.72;1.00;;;22.50;80.20;;;;;;5071369;28;20068;-82
2023/07/04 15:20:34;;;;;;;5.72;0.90;;;22.30;80.10;;;;;;5050933;28;20461;-83
2023/07/04 15:23:00;;;;;;;4.35;0.80;;;22.30;80.30;;;;;;5069996;28;20071;-82
2023/07/04 15:25:25;;;;;;;4.07;0.80;;;22.40;80.10;;;;;;5068996;28;20048;-83
2023/07/04 15:27:51;;;;;;;8.00;1.33;;;22.60;79.80;;;;;;5052853;28;20045;-82
2023/07/04 15:30:17;;;;;;;3.78;0.95;;;22.70;79.70;;;;;;5068441;28;20045;-83
2023/07/04 15:32:45;;;;;;;8.20;1.58;;;22.70;79.40;;;;;;5068558;28;20087;-85
2023/07/04 15:35:11;;;;;;;9.45;1.65;;;22.80;79.10;;;;;;5068881;28;20041;-85
2023/07/04 15:37:37;;;;;;;2.53;1.05;;;22.80;78.70;;;;;;5067703;28;20056;-84
2023/07/04 15:40:04;;;;;;;5.20;1.00;;;22.60;78.30;;;;;;5052666;28;20070;-83
2023/07/04 15:42:30;;;;;;;6.88;1.17;;;22.40;78.40;;;;;;5050511;28;20126;-84
2023/07/04 15:44:56;;;;;;;3.53;0.90;;;22.40;78.80;;;;;;5070771;28;20087;-85
2023/07/04 15:47:28;;;;;;;6.65;2.13;;;22.40;78.40;;;;;;5068555;28;20052;-85
2023/07/04 15:49:53;;;;;;;5.70;1.00;;;22.40;78.20;;;;;;5067199;28;20052;-84
2023/07/04 15:52:20;;;;;;;2.88;1.10;;;22.40;77.70;;;;;;5051830;28;20045;-83
2023/07/04 15:54:45;;;;;;;4.05;1.23;;;22.50;77.80;;;;;;5050543;28;20118;-83
2023/07/04 15:57:11;;;;;;;4.80;1.30;;;22.50;77.00;;;;;;5052287;28;20463;-83
2023/07/04 15:59:37;;;;;;;4.45;1.05;;;22.50;77.00;;;;;;5066761;28;20070;-82
2023/07/04 16:02:03;;;;;;;4.13;0.90;;;22.50;76.40;;;;;;5068391;28;20048;-84
2023/07/04 16:04:29;;;;;;;2.80;0.93;;;22.40;75.90;;;;;;5070118;28;20084;-83
2023/07/04 16:06:57;;;;;;;3.50;0.88;;;22.30;76.30;;;;;;5051910;28;20059;-84
2023/07/04 16:09:23;;;;;;;4.10;1.17;;;22.10;76.50;;;;;;5068532;28;20044;-83
2023/07/04 16:11:48;;;;;;;3.90;1.55;;;21.90;76.90;;;;;;5049623;28;20040;-82
2023/07/04 16:14:14;;;;;;;4.57;1.23;;;21.90;76.80;;;;;;5069678;28;20041;-81
2023/07/04 16:16:40;;;;;;;5.53;1.10;;;21.80;77.00;;;;;;5049991;28;20198;-81
2023/07/04 16:19:06;;;;;;;3.63;0.93;;;21.70;76.80;;;;;;5068574;28;20398;-82
2023/07/04 16:21:34;;;;;;;2.95;0.80;;;21.60;76.80;;;;;;5033752;28;20049;-83
2023/07/04 16:24:01;;;;;;;3.22;0.77;;;21.50;76.80;;;;;;5068170;28;20072;-82
2023/07/04 16:26:27;;;;;;;3.80;0.73;;;21.50;77.10;;;;;;5068754;28;20044;-81
2023/07/04 16:28:52;;;;;;;3.80;1.30;;;21.40;77.40;;;;;;5050056;28;20044;-82
2023/07/04 16:31:18;;;;;;;5.93;0.98;;;21.30;77.40;;;;;;5068669;28;20635;-82
2023/07/04 16:33:44;;;;;;;3.20;0.98;;;21.30;77.80;;;;;;5066445;28;20051;-81
2023/07/04 16:36:10;;;;;;;4.10;0.80;;;21.20;77.80;;;;;;5068000;28;20411;-84
2023/07/04 16:38:35;;;;;;;4.38;0.85;;;21.10;78.20;;;;;;5068665;28;20036;-82
2023/07/04 16:41:07;;;;;;;4.55;1.88;;;21.10;78.50;;;;;;5069686;28;20048;-82
2023/07/04 16:43:33;;;;;;;5.45;1.30;;;21.00;78.40;;;;;;5068854;28;20083;-84
2023/07/04 16:45:59;;;;;;;3.88;1.10;;;20.90;78.80;;;;;;5038792;28;20044;-86
2023/07/04 16:48:25;;;;;;;4.15;0.98;;;20.90;79.10;;;;;;5069467;28;20064;-83
2023/07/04 16:50:54;;;;;;;4.35;1.00;;;20.90;79.40;;;;;;5086359;28;20086;-83
2023/07/04 16:53:19;;;;;;;5.20;0.85;;;20.90;79.70;;;;;;5059288;28;20040;-84
2023/07/04 16:55:45;;;;;;;5.10;1.20;;;20.90;80.30;;;;;;5067945;28;20040;-84
2023/07/04 16:58:11;;;;;;;4.78;1.65;;;20.90;80.50;;;;;;5067535;28;20053;-82
2023/07/04 17:00:36;;;;;;;6.32;2.53;;;20.90;80.50;;;;;;5068437;28;20082;-82
2023/07/04 17:03:02;;;;;;;3.83;0.90;;;20.80;80.80;;;;;;5065829;28;20154;-84
2023/07/04 17:05:28;;;;;;;4.25;0.90;;;20.80;81.90;;;;;;5067540;28;20044;-85
2023/07/04 17:07:54;;;;;;;5.53;0.82;;;20.80;81.50;;;;;;5065571;28;20040;-84
2023/07/04 17:10:19;;;;;;;4.07;0.82;;;20.70;81.50;;;;;;5068844;28;20396;-85
2023/07/04 17:12:45;;;;;;;4.95;1.27;;;20.60;81.70;;;;;;5065939;28;20032;-84
2023/07/04 17:15:11;;;;;;;4.35;1.13;;;20.50;81.80;;;;;;5050059;28;20049;-84
2023/07/04 17:17:36;;;;;;;5.50;0.70;;;20.40;82.10;;;;;;5033699;28;20125;-85
2023/07/04 17:20:03;;;;;;;4.32;0.93;;;20.40;83.10;;;;;;5066362;28;20122;-84
2023/07/04 17:22:29;;;;;;;4.07;0.95;;;20.30;82.50;;;;;;5068598;28;20063;-84
2023/07/04 17:24:54;;;;;;;5.95;0.75;;;20.30;82.70;;;;;;5065736;28;20044;-85
2023/07/04 17:27:20;;;;;;;3.65;0.70;;;20.20;82.80;;;;;;5050327;28;20048;-85
2023/07/04 17:29:46;;;;;;;4.68;0.82;;;20.10;83.10;;;;;;5049620;28;20190;-84
2023/07/04 17:32:11;;;;;;;5.28;0.82;;;20.10;83.40;;;;;;5066146;28;20040;-84
2023/07/04 17:34:37;;;;;;;5.53;1.92;;;20.00;83.60;;;;;;5066837;28;20084;-85
2023/07/04 17:37:05;;;;;;;2.05;0.70;;;19.90;84.00;;;;;;5048240;28;20497;-84
2023/07/04 17:39:31;;;;;;;2.80;0.93;;;19.90;84.70;;;;;;5049343;28;20048;-84
2023/07/04 17:41:57;;;;;;;6.05;0.70;;;19.90;84.70;;;;;;5047840;28;20049;-85
2023/07/04 17:44:30;;;;;;;6.95;0.95;;;19.90;84.90;;;;;;5066387;28;20052;-84
2023/07/04 17:46:55;;;;;;;7.97;1.17;;;19.80;85.10;;;;;;5065451;28;20062;-83
2023/07/04 17:49:21;;;;;;;6.63;0.82;;;19.70;85.10;;;;;;5065549;28;20043;-84
2023/07/04 17:51:47;;;;;;;11.65;2.30;;;19.70;85.30;;;;;;5067350;28;20045;-85
2023/07/04 17:54:17;;;;;;;4.20;0.80;;;19.60;85.60;;;;;;5066458;28;20528;-81
2023/07/04 17:56:43;;;;;;;3.38;1.15;;;19.60;86.10;;;;;;5068015;28;20442;-85
2023/07/04 17:59:10;;;;;;;3.38;0.82;;;19.60;86.40;;;;;;5030795;28;20040;-83
2023/07/04 18:01:37;;;;;;;5.72;1.00;;;19.50;86.80;;;;;;5066626;28;20441;-84
2023/07/04 18:04:03;;;;;;;5.50;1.27;;;19.50;87.20;;;;;;5066147;28;20140;-82
2023/07/04 18:06:29;;;;;;;7.50;1.05;;;19.40;87.40;;;;;;5066390;28;20040;-82
2023/07/04 18:08:55;;;;;;;6.57;1.48;;;19.40;87.90;;;;;;5065404;28;20059;-82
2023/07/04 18:11:27;;;;;;;5.97;0.73;;;19.40;88.00;;;;;;5048033;28;20056;-82
2023/07/04 18:13:55;;;;;;;4.22;0.82;;;19.30;88.30;;;;;;5049383;28;20044;-82
2023/07/04 18:16:22;;;;;;;2.83;0.63;;;19.20;88.50;;;;;;5065293;28;20174;-82
2023/07/04 18:18:48;;;;;;;3.00;0.90;;;19.20;89.00;;;;;;5066093;28;20572;-83
2023/07/04 18:21:20;;;;;;;7.63;0.95;;;19.20;89.20;;;;;;5032113;28;20036;-83
2023/07/04 18:24:01;;;;;;;3.35;0.82;;;19.10;89.30;;;;;;5070011;28;20032;-86
2023/07/04 18:26:30;;;;;;;2.65;0.70;;;19.10;89.70;;;;;;5078060;28;20036;-86
2023/07/04 18:28:56;;;;;;;7.20;0.90;;;19.00;89.90;;;;;;5088348;28;20073;-83
2023/07/04 18:31:27;;;;;;;4.65;0.90;;;18.10;89.50;;;;;;5083553;28;20507;-83
2023/07/04 18:33:59;;;;;;;7.43;1.05;;;19.00;90.10;;;;;;5067246;28;20054;-82
2023/07/04 18:36:27;;;;;;;3.85;1.02;;;18.90;90.10;;;;;;5048861;28;20052;-83
2023/07/04 18:38:54;;;;;;;3.47;1.05;;;18.90;90.30;;;;;;5048847;28;20403;-85
2023/07/04 18:41:25;;;;;;;1.60;0.60;;;17.20;89.90;;;;;;5066084;28;20040;-84
2023/07/04 18:43:51;;;;;;;3.58;1.00;;;19.80;90.60;;;;;;5067018;28;20057;-83
2023/07/04 18:46:25;;;;;;;4.15;0.80;;;18.80;90.50;;;;;;5064216;28;20049;-83
2023/07/04 18:48:51;;;;;;;3.30;0.75;;;18.80;90.60;;;;;;5066538;28;20044;-83
2023/07/04 18:51:21;;;;;;;3.50;0.60;;;18.70;90.60;;;;;;5064822;28;20127;-83
2023/07/04 18:53:49;;;;;;;4.53;0.95;;;18.70;90.70;;;;;;5066097;28;20431;-83
2023/07/04 18:56:14;;;;;;;8.48;1.50;;;18.70;90.80;;;;;;5066731;28;20533;-83
2023/07/04 18:58:42;;;;;;;3.45;1.10;;;18.60;90.80;;;;;;5066378;28;20045;-83
2023/07/04 19:01:17;;;;;;;2.60;0.70;;;18.60;91.00;;;;;;5070278;28;20045;-83
2023/07/04 19:03:43;;;;;;;4.57;1.63;;;18.50;91.00;;;;;;5050475;28;20392;-84
2023/07/04 19:06:17;;;;;;;6.60;1.05;;;18.50;91.60;;;;;;5070524;28;20051;-86
2023/07/04 19:08:44;;;;;;;2.20;0.80;;;18.40;91.30;;;;;;5068910;28;20053;-86
2023/07/04 19:11:11;;;;;;;3.40;1.13;;;18.40;91.40;;;;;;5050808;28;20040;-86
2023/07/04 19:13:38;;;;;;;3.53;1.00;;;18.30;91.50;;;;;;5052137;28;20076;-86
2023/07/04 19:16:04;;;;;;;4.70;1.33;;;17.80;91.70;;;;;;5050334;28;20101;-85
2023/07/04 19:18:30;;;;;;;4.70;1.17;;;18.20;91.90;;;;;;5053184;28;20044;-87
2023/07/04 19:20:58;;;;;;;5.53;2.03;;;18.20;92.10;;;;;;5034729;28;20037;-85
2023/07/04 19:23:25;;;;;;;2.42;0.73;;;18.20;92.10;;;;;;5051757;28;20648;-86
2023/07/04 19:25:51;;;;;;;5.88;1.05;;;18.10;92.20;;;;;;5066807;28;20051;-86
2023/07/04 19:28:17;;;;;;;6.82;1.10;;;18.00;92.40;;;;;;5048945;28;20041;-85
2023/07/04 19:30:55;;;;;;;6.85;1.30;;;18.00;92.50;;;;;;5050852;28;20126;-85
2023/07/04 19:33:22;;;;;;;4.53;1.38;;;17.10;92.40;;;;;;5049493;28;20049;-83
2023/07/04 19:35:47;;;;;;;2.95;0.88;;;16.20;92.40;;;;;;5048329;28;20479;-85
2023/07/04 19:38:13;;;;;;;3.70;1.13;;;17.90;93.00;;;;;;5064589;28;20049;-85
2023/07/04 19:40:39;;;;;;;3.30;0.95;;;17.80;93.30;;;;;;5032760;28;20036;-86
2023/07/04 19:43:04;;;;;;;2.70;1.10;;;17.80;93.60;;;;;;5033227;28;20052;-86
2023/07/04 19:45:30;;;;;;;2.45;0.82;;;17.80;93.80;;;;;;5064544;28;20434;-87
2023/07/04 19:47:57;;;;;;;5.47;1.00;;;17.70;94.00;;;;;;5050149;28;20041;-85
2023/07/04 19:50:23;;;;;;;2.72;0.80;;;17.70;94.20;;;;;;5048170;28;20036;-84
2023/07/04 19:52:49;;;;;;;3.83;0.68;;;17.70;94.50;;;;;;5065636;28;20094;-84
2023/07/04 19:55:16;;;;;;;4.45;1.10;;;17.70;94.70;;;;;;5063645;28;20040;-84
2023/07/04 19:57:46;;;;;;;4.97;1.13;;;17.60;94.80;;;;;;5065002;28;20049;-85
2023/07/04 20:00:13;;;;;;;3.97;0.85;;;17.60;95.10;;;;;;5060488;28;20131;-84
2023/07/04 20:02:39;;;;;;;2.60;0.90;;;17.60;95.50;;;;;;5074197;28;20048;-83
2023/07/04 20:05:05;;;;;;;3.28;0.85;;;17.50;95.90;;;;;;5089321;28;20044;-83
2023/07/04 20:07:31;;;;;;;4.10;1.30;;;17.40;96.30;;;;;;5089607;28;20036;-83
2023/07/04 20:09:57;;;;;;;4.97;0.82;;;17.30;96.60;;;;;;5074072;28;20072;-87
2023/07/04 20:12:24;;;;;;;4.43;0.95;;;17.30;97.00;;;;;;5051942;28;20079;-85
2023/07/04 20:14:49;;;;;;;2.50;0.80;;;17.20;97.40;;;;;;5068087;28;20070;-84
2023/07/04 20:17:16;;;;;;;2.55;1.02;;;17.10;97.80;;;;;;5069346;28;20036;-85
2023/07/04 20:19:42;;;;;;;5.30;1.30;;;17.00;98.10;;;;;;5050415;28;20373;-85
2023/07/04 20:22:10;;;;;;;4.47;0.80;;;16.50;98.50;;;;;;5051446;28;20047;-85
2023/07/04 20:24:36;;;;;;;6.72;1.30;;;16.90;98.90;;;;;;5066609;28;20465;-86
2023/07/04 20:27:02;;;;;;;5.28;1.00;;;16.80;99.20;;;;;;5051600;28;20048;-85
2023/07/04 20:29:28;;;;;;;4.88;0.98;;;16.80;99.50;;;;;;5050216;28;20076;-85
2023/07/04 20:31:54;;;;;;;5.05;1.00;;;16.80;99.80;;;;;;5067389;28;20083;-86
2023/07/04 20:34:20;;;;;;;5.00;1.15;;;16.80;99.90;;;;;;5050942;28;20044;-85
2023/07/04 20:36:46;;;;;;;5.95;1.45;;;16.70;99.90;;;;;;5066533;28;20037;-85
2023/07/04 20:39:11;;;;;;;3.53;1.10;;;16.70;99.90;;;;;;5069456;28;20387;-85
2023/07/04 20:41:37;;;;;;;4.40;1.33;;;16.70;99.90;;;;;;5066377;28;20048;-84
2023/07/04 20:44:03;;;;;;;4.60;0.98;;;16.70;99.90;;;;;;5067440;28;20453;-85
2023/07/04 20:46:28;;;;;;;5.50;1.35;;;16.60;99.90;;;;;;5049447;28;20044;-85
2023/07/04 20:48:54;;;;;;;7.13;1.50;;;16.50;99.90;;;;;;5051086;28;20059;-85
2023/07/04 20:51:23;;;;;;;8.63;1.70;;;16.50;99.90;;;;;;5050158;28;20052;-85
2023/07/04 20:53:49;;;;;;;2.42;0.95;;;16.40;99.90;;;;;;5049661;28;20588;-85
2023/07/04 20:56:14;;;;;;;4.20;0.88;;;16.50;99.90;;;;;;5067764;28;20135;-86
2023/07/04 20:58:40;;;;;;;5.38;1.13;;;16.40;99.90;;;;;;5049067;28;20379;-85
2023/07/04 21:01:06;;;;;;;5.88;1.08;;;16.40;99.90;;;;;;5067141;28;20039;-87
2023/07/04 21:03:34;;;;;;;6.45;1.35;;;16.40;99.90;;;;;;5048507;28;20052;-85
2023/07/04 21:06:05;;;;;;;7.68;1.50;;;16.30;99.90;;;;;;5034527;28;20395;-86
2023/07/04 21:08:31;;;;;;;5.03;1.30;;;16.30;99.90;;;;;;5049754;28;20117;-86
2023/07/04 21:11:06;;;;;;;3.95;0.80;;;16.30;99.90;;;;;;5049474;28;20048;-85
2023/07/04 21:13:34;;;;;;;7.72;1.73;;;17.70;99.90;;;;;;5066032;28;20085;-85
2023/07/04 21:16:06;;;;;;;3.97;1.02;;;16.20;99.90;;;;;;5064792;28;20041;-85
2023/07/04 21:18:32;;;;;;;3.85;1.00;;;16.20;99.90;;;;;;5066816;28;20090;-85
2023/07/04 21:20:58;;;;;;;5.13;0.90;;;16.10;99.90;;;;;;5065701;28;20501;-85
2023/07/04 21:23:24;;;;;;;5.35;1.05;;;16.10;99.90;;;;;;5050047;28;20416;-84
2023/07/04 21:25:50;;;;;;;3.40;1.10;;;16.10;99.90;;;;;;5050040;28;20043;-84
2023/07/04 21:28:15;;;;;;;3.17;1.10;;;16.10;99.90;;;;;;5067139;28;20388;-85
2023/07/04 21:30:41;;;;;;;2.78;1.02;;;16.10;99.90;;;;;;5050362;28;20054;-86
2023/07/04 21:33:07;;;;;;;5.38;1.77;;;16.00;99.90;;;;;;5032200;28;20032;-86
2023/07/04 21:35:33;;;;;;;3.47;1.13;;;15.30;99.90;;;;;;5069932;28;20052;-85
2023/07/04 21:37:59;;;;;;;2.95;0.98;;;16.00;99.90;;;;;;5040190;28;20392;-85
2023/07/04 21:40:25;;;;;;;5.20;1.10;;;16.10;99.90;;;;;;5052247;28;20032;-86
2023/07/04 21:42:51;;;;;;;3.95;1.67;;;16.00;99.90;;;;;;5073183;28;20044;-84
2023/07/04 21:45:17;;;;;;;4.38;0.95;;;14.20;99.90;;;;;;5057042;28;20053;-85
2023/07/04 21:47:42;;;;;;;5.75;1.25;;;16.00;99.90;;;;;;5035051;28;20102;-85
2023/07/04 21:50:09;;;;;;;5.50;1.88;;;16.00;99.90;;;;;;5048719;28;20040;-86
2023/07/04 21:52:36;;;;;;;5.57;1.23;;;16.00;99.90;;;;;;5066346;28;20063;-85
2023/07/04 21:55:02;;;;;;;4.95;0.95;;;16.00;99.90;;;;;;5048632;28;20041;-85
2023/07/04 21:57:28;;;;;;;5.55;1.52;;;16.00;99.90;;;;;;5065940;28;20132;-84
2023/07/04 21:59:54;;;;;;;5.57;1.02;;;16.00;99.90;;;;;;5048925;28;20119;-85
2023/07/04 22:02:19;;;;;;;4.60;1.20;;;16.00;99.90;;;;;;5048396;28;20123;-85
2023/07/04 22:04:45;;;;;;;6.80;1.48;;;16.00;99.90;;;;;;5049227;28;20768;-85
2023/07/04 22:07:10;;;;;;;8.65;1.30;;;16.10;99.90;;;;;;5047635;28;20044;-86
2023/07/04 22:09:36;;;;;;;6.70;1.67;;;17.00;99.90;;;;;;5049622;28;20032;-86
2023/07/04 22:12:03;;;;;;;4.45;1.25;;;16.10;99.90;;;;;;5067110;28;20116;-87
2023/07/04 22:14:28;;;;;;;4.25;1.75;;;16.10;99.90;;;;;;5051449;28;20129;-86
2023/07/04 22:16:54;;;;;;;3.33;1.00;;;16.10;99.90;;;;;;5066052;28;20577;-85
2023/07/04 22:19:20;;;;;;;5.22;1.23;;;16.10;99.90;;;;;;5048896;28;20123;-86
2023/07/04 22:21:46;;;;;;;3.15;0.98;;;16.10;99.90;;;;;;5049135;28;20040;-86
2023/07/04 22:24:12;;;;;;;5.72;1.70;;;16.20;99.90;;;;;;5030933;28;20049;-86
2023/07/04 22:26:38;;;;;;;2.50;0.93;;;16.20;99.90;;;;;;5067184;28;20495;-86
2023/07/04 22:29:03;;;;;;;2.55;1.10;;;16.20;99.90;;;;;;5047796;28;20043;-87
2023/07/04 22:31:29;;;;;;;9.68;1.30;;;16.20;99.90;;;;;;5049021;28;20055;-85
2023/07/04 22:34:01;;;;;;;6.10;1.20;;;15.50;99.90;;;;;;5064358;28;20040;-85
2023/07/04 22:36:28;;;;;;;5.70;1.58;;;16.20;99.90;;;;;;5048585;28;20128;-85